sensor_id;sensor_type;location;lat;lon;timestamp;P1;durP1;ratioP1;P2;durP2;ratioP2
62633;SDS011;48704;50.534;6.442;2024-01-11T00:01:29;185.25;;;60.40;;
62633;SDS011;48704;50.534;6.442;2024-01-11T00:03:54;54.45;;;23.60;;
62633;SDS011;48704;50.534;6.442;2024-01-11T00:06:20;19.73;;;8.30;;
62633;SDS011;48704;50.534;6.442;2024-01-11T00:08:45;19.42;;;8.27;;
62633;SDS011;48704;50.534;6.442;2024-01-11T00:11:10;19.67;;;7.00;;
62633;SDS011;48704;50.534;6.442;2024-01-11T00:13:36;20.92;;;8.65;;
62633;SDS011;48704;50.534;6.442;2024-01-11T00:16:03;19.70;;;7.70;;
62633;SDS011;48704;50.534;6.442;2024-01-11T00:18:32;16.60;;;6.22;;
62633;SDS011;48704;50.534;6.442;2024-01-11T00:21:00;18.83;;;8.55;;
62633;SDS011;48704;50.534;6.442;2024-01-11T00:23:28;16.27;;;6.75;;
62633;SDS011;48704;50.534;6.442;2024-01-11T00:26:05;18.02;;;7.57;;
62633;SDS011;48704;50.534;6.442;2024-01-11T00:28:30;17.40;;;8.48;;
62633;SDS011;48704;50.534;6.442;2024-01-11T00:30:58;25.50;;;10.43;;
62633;SDS011;48704;50.534;6.442;2024-01-11T00:33:44;18.83;;;9.98;;
62633;SDS011;48704;50.534;6.442;2024-01-11T00:36:21;17.55;;;8.27;;
62633;SDS011;48704;50.534;6.442;2024-01-11T00:38:47;24.52;;;10.82;;
62633;SDS011;48704;50.534;6.442;2024-01-11T00:41:20;24.25;;;11.25;;
62633;SDS011;48704;50.534;6.442;2024-01-11T00:43:48;23.05;;;9.50;;
62633;SDS011;48704;50.534;6.442;2024-01-11T00:46:13;29.48;;;11.05;;
62633;SDS011;48704;50.534;6.442;2024-01-11T00:48:39;21.35;;;10.43;;
62633;SDS011;48704;50.534;6.442;2024-01-11T00:51:04;26.02;;;10.43;;
62633;SDS011;48704;50.534;6.442;2024-01-11T00:53:31;20.33;;;9.43;;
62633;SDS011;48704;50.534;6.442;2024-01-11T00:55:57;22.88;;;9.95;;
62633;SDS011;48704;50.534;6.442;2024-01-11T00:58:23;27.92;;;10.77;;
62633;SDS011;48704;50.534;6.442;2024-01-11T01:00:51;24.20;;;9.60;;
62633;SDS011;48704;50.534;6.442;2024-01-11T01:03:22;23.60;;;9.63;;
62633;SDS011;48704;50.534;6.442;2024-01-11T01:05:57;22.02;;;10.68;;
62633;SDS011;48704;50.534;6.442;2024-01-11T01:08:23;21.27;;;10.02;;
62633;SDS011;48704;50.534;6.442;2024-01-11T01:11:07;24.17;;;9.68;;
62633;SDS011;48704;50.534;6.442;2024-01-11T01:13:46;23.05;;;9.60;;
62633;SDS011;48704;50.534;6.442;2024-01-11T01:16:20;23.33;;;9.77;;
62633;SDS011;48704;50.534;6.442;2024-01-11T01:18:45;20.73;;;9.07;;
62633;SDS011;48704;50.534;6.442;2024-01-11T01:21:14;24.02;;;9.02;;
62633;SDS011;48704;50.534;6.442;2024-01-11T01:23:39;20.98;;;9.93;;
62633;SDS011;48704;50.534;6.442;2024-01-11T01:26:07;22.65;;;9.23;;
62633;SDS011;48704;50.534;6.442;2024-01-11T01:28:36;22.15;;;10.40;;
62633;SDS011;48704;50.534;6.442;2024-01-11T01:31:04;22.08;;;9.52;;
62633;SDS011;48704;50.534;6.442;2024-01-11T01:33:29;22.95;;;10.27;;
62633;SDS011;48704;50.534;6.442;2024-01-11T01:36:15;28.88;;;10.55;;
62633;SDS011;48704;50.534;6.442;2024-01-11T01:38:41;22.60;;;10.57;;
62633;SDS011;48704;50.534;6.442;2024-01-11T01:41:10;24.95;;;9.75;;
62633;SDS011;48704;50.534;6.442;2024-01-11T01:43:35;26.77;;;10.43;;
62633;SDS011;48704;50.534;6.442;2024-01-11T01:46:04;26.67;;;10.70;;
62633;SDS011;48704;50.534;6.442;2024-01-11T01:48:30;22.70;;;9.18;;
62633;SDS011;48704;50.534;6.442;2024-01-11T01:50:56;26.80;;;10.25;;
62633;SDS011;48704;50.534;6.442;2024-01-11T01:53:24;21.60;;;9.15;;
62633;SDS011;48704;50.534;6.442;2024-01-11T01:55:56;27.02;;;10.30;;
62633;SDS011;48704;50.534;6.442;2024-01-11T01:58:21;29.48;;;10.20;;
62633;SDS011;48704;50.534;6.442;2024-01-11T02:00:47;26.33;;;10.30;;
62633;SDS011;48704;50.534;6.442;2024-01-11T02:03:17;25.27;;;11.32;;
62633;SDS011;48704;50.534;6.442;2024-01-11T02:05:43;24.65;;;9.27;;
62633;SDS011;48704;50.534;6.442;2024-01-11T02:08:08;26.30;;;10.38;;
62633;SDS011;48704;50.534;6.442;2024-01-11T02:10:40;21.10;;;9.55;;
62633;SDS011;48704;50.534;6.442;2024-01-11T02:13:05;26.85;;;11.57;;
62633;SDS011;48704;50.534;6.442;2024-01-11T02:15:37;24.75;;;11.32;;
62633;SDS011;48704;50.534;6.442;2024-01-11T02:18:05;29.13;;;10.52;;
62633;SDS011;48704;50.534;6.442;2024-01-11T02:20:33;24.38;;;9.77;;
62633;SDS011;48704;50.534;6.442;2024-01-11T02:23:01;25.23;;;11.00;;
62633;SDS011;48704;50.534;6.442;2024-01-11T02:25:30;23.00;;;10.65;;
62633;SDS011;48704;50.534;6.442;2024-01-11T02:27:56;32.03;;;11.63;;
62633;SDS011;48704;50.534;6.442;2024-01-11T02:30:21;25.48;;;10.57;;
62633;SDS011;48704;50.534;6.442;2024-01-11T02:32:47;25.83;;;10.63;;
62633;SDS011;48704;50.534;6.442;2024-01-11T02:35:14;25.80;;;10.75;;
62633;SDS011;48704;50.534;6.442;2024-01-11T02:37:40;23.58;;;10.20;;
62633;SDS011;48704;50.534;6.442;2024-01-11T02:40:08;26.02;;;10.70;;
62633;SDS011;48704;50.534;6.442;2024-01-11T02:42:36;27.05;;;12.35;;
62633;SDS011;48704;50.534;6.442;2024-01-11T02:45:05;25.23;;;11.07;;
62633;SDS011;48704;50.534;6.442;2024-01-11T02:47:33;33.03;;;11.02;;
62633;SDS011;48704;50.534;6.442;2024-01-11T02:50:00;22.58;;;10.63;;
62633;SDS011;48704;50.534;6.442;2024-01-11T02:52:32;24.20;;;11.27;;
62633;SDS011;48704;50.534;6.442;2024-01-11T02:55:00;23.58;;;10.77;;
62633;SDS011;48704;50.534;6.442;2024-01-11T02:57:28;29.92;;;11.23;;
62633;SDS011;48704;50.534;6.442;2024-01-11T02:59:54;25.00;;;10.55;;
62633;SDS011;48704;50.534;6.442;2024-01-11T03:02:24;30.98;;;12.93;;
62633;SDS011;48704;50.534;6.442;2024-01-11T03:07:41;24.17;;;10.23;;
62633;SDS011;48704;50.534;6.442;2024-01-11T03:10:37;27.02;;;12.15;;
62633;SDS011;48704;50.534;6.442;2024-01-11T03:16:17;31.98;;;12.93;;
62633;SDS011;48704;50.534;6.442;2024-01-11T03:18:49;23.10;;;10.80;;
62633;SDS011;48704;50.534;6.442;2024-01-11T03:21:17;31.85;;;12.30;;
62633;SDS011;48704;50.534;6.442;2024-01-11T03:23:47;22.00;;;11.05;;
62633;SDS011;48704;50.534;6.442;2024-01-11T03:26:32;28.05;;;12.30;;
62633;SDS011;48704;50.534;6.442;2024-01-11T03:29:16;27.50;;;11.23;;
62633;SDS011;48704;50.534;6.442;2024-01-11T03:32:01;24.35;;;11.18;;
62633;SDS011;48704;50.534;6.442;2024-01-11T03:34:29;25.38;;;11.52;;
62633;SDS011;48704;50.534;6.442;2024-01-11T03:36:55;27.08;;;11.43;;
62633;SDS011;48704;50.534;6.442;2024-01-11T03:39:24;30.33;;;11.27;;
62633;SDS011;48704;50.534;6.442;2024-01-11T03:41:53;24.67;;;11.10;;
62633;SDS011;48704;50.534;6.442;2024-01-11T03:44:18;21.77;;;9.93;;
62633;SDS011;48704;50.534;6.442;2024-01-11T03:46:44;23.52;;;10.18;;
62633;SDS011;48704;50.534;6.442;2024-01-11T03:49:09;26.00;;;10.63;;
62633;SDS011;48704;50.534;6.442;2024-01-11T03:51:34;27.48;;;11.50;;
62633;SDS011;48704;50.534;6.442;2024-01-11T03:54:00;25.67;;;11.30;;
62633;SDS011;48704;50.534;6.442;2024-01-11T03:56:26;26.70;;;11.50;;
62633;SDS011;48704;50.534;6.442;2024-01-11T03:58:51;27.30;;;12.02;;
62633;SDS011;48704;50.534;6.442;2024-01-11T04:01:16;25.13;;;10.20;;
62633;SDS011;48704;50.534;6.442;2024-01-11T04:03:42;26.13;;;11.02;;
62633;SDS011;48704;50.534;6.442;2024-01-11T04:06:07;26.98;;;10.60;;
62633;SDS011;48704;50.534;6.442;2024-01-11T04:08:32;25.20;;;11.70;;
62633;SDS011;48704;50.534;6.442;2024-01-11T04:10:57;26.70;;;11.88;;
62633;SDS011;48704;50.534;6.442;2024-01-11T04:13:23;24.00;;;11.60;;
62633;SDS011;48704;50.534;6.442;2024-01-11T04:15:49;28.30;;;10.20;;
62633;SDS011;48704;50.534;6.442;2024-01-11T04:18:14;33.65;;;13.75;;
62633;SDS011;48704;50.534;6.442;2024-01-11T04:20:39;30.65;;;11.57;;
62633;SDS011;48704;50.534;6.442;2024-01-11T04:23:05;24.10;;;11.95;;
62633;SDS011;48704;50.534;6.442;2024-01-11T04:25:30;26.73;;;11.68;;
62633;SDS011;48704;50.534;6.442;2024-01-11T04:27:55;24.52;;;10.40;;
62633;SDS011;48704;50.534;6.442;2024-01-11T04:30:20;24.67;;;11.65;;
62633;SDS011;48704;50.534;6.442;2024-01-11T04:32:46;29.10;;;11.48;;
62633;SDS011;48704;50.534;6.442;2024-01-11T04:35:11;28.60;;;12.00;;
62633;SDS011;48704;50.534;6.442;2024-01-11T04:37:37;24.58;;;9.93;;
62633;SDS011;48704;50.534;6.442;2024-01-11T04:40:02;27.05;;;11.15;;
62633;SDS011;48704;50.534;6.442;2024-01-11T04:42:28;28.75;;;11.77;;
62633;SDS011;48704;50.534;6.442;2024-01-11T04:44:54;28.30;;;10.23;;
62633;SDS011;48704;50.534;6.442;2024-01-11T04:47:19;23.92;;;10.77;;
62633;SDS011;48704;50.534;6.442;2024-01-11T04:49:44;26.85;;;10.65;;
62633;SDS011;48704;50.534;6.442;2024-01-11T04:52:10;29.30;;;11.10;;
62633;SDS011;48704;50.534;6.442;2024-01-11T04:54:35;29.40;;;10.88;;
62633;SDS011;48704;50.534;6.442;2024-01-11T04:57:01;28.10;;;11.43;;
62633;SDS011;48704;50.534;6.442;2024-01-11T04:59:26;27.55;;;11.55;;
62633;SDS011;48704;50.534;6.442;2024-01-11T05:01:51;28.58;;;11.90;;
62633;SDS011;48704;50.534;6.442;2024-01-11T05:04:16;33.72;;;12.32;;
62633;SDS011;48704;50.534;6.442;2024-01-11T05:06:42;26.40;;;10.90;;
62633;SDS011;48704;50.534;6.442;2024-01-11T05:09:07;24.73;;;12.27;;
62633;SDS011;48704;50.534;6.442;2024-01-11T05:11:32;26.30;;;12.38;;
62633;SDS011;48704;50.534;6.442;2024-01-11T05:13:58;155.00;;;47.03;;
62633;SDS011;48704;50.534;6.442;2024-01-11T05:16:24;35.30;;;16.58;;
62633;SDS011;48704;50.534;6.442;2024-01-11T05:18:51;27.77;;;11.63;;
62633;SDS011;48704;50.534;6.442;2024-01-11T05:21:17;30.15;;;12.30;;
62633;SDS011;48704;50.534;6.442;2024-01-11T05:23:42;29.65;;;12.18;;
62633;SDS011;48704;50.534;6.442;2024-01-11T05:26:09;25.95;;;10.40;;
62633;SDS011;48704;50.534;6.442;2024-01-11T05:28:35;29.98;;;12.38;;
62633;SDS011;48704;50.534;6.442;2024-01-11T05:31:00;33.65;;;14.85;;
62633;SDS011;48704;50.534;6.442;2024-01-11T05:33:26;30.42;;;12.80;;
62633;SDS011;48704;50.534;6.442;2024-01-11T05:35:51;28.58;;;12.73;;
62633;SDS011;48704;50.534;6.442;2024-01-11T05:38:18;30.35;;;10.23;;
62633;SDS011;48704;50.534;6.442;2024-01-11T05:40:44;27.88;;;11.80;;
62633;SDS011;48704;50.534;6.442;2024-01-11T05:43:09;27.70;;;11.65;;
62633;SDS011;48704;50.534;6.442;2024-01-11T05:45:34;33.97;;;14.07;;
62633;SDS011;48704;50.534;6.442;2024-01-11T05:48:00;30.25;;;13.05;;
62633;SDS011;48704;50.534;6.442;2024-01-11T05:50:25;35.25;;;13.23;;
62633;SDS011;48704;50.534;6.442;2024-01-11T05:52:51;33.63;;;13.30;;
62633;SDS011;48704;50.534;6.442;2024-01-11T05:55:17;29.95;;;13.77;;
62633;SDS011;48704;50.534;6.442;2024-01-11T05:57:42;31.75;;;14.32;;
62633;SDS011;48704;50.534;6.442;2024-01-11T06:00:07;33.67;;;12.75;;
62633;SDS011;48704;50.534;6.442;2024-01-11T06:02:33;31.33;;;13.85;;
62633;SDS011;48704;50.534;6.442;2024-01-11T06:04:58;32.15;;;13.07;;
62633;SDS011;48704;50.534;6.442;2024-01-11T06:07:23;25.75;;;12.40;;
62633;SDS011;48704;50.534;6.442;2024-01-11T06:09:49;31.02;;;12.55;;
62633;SDS011;48704;50.534;6.442;2024-01-11T06:12:14;26.05;;;11.70;;
62633;SDS011;48704;50.534;6.442;2024-01-11T06:14:39;29.52;;;11.55;;
62633;SDS011;48704;50.534;6.442;2024-01-11T06:17:05;24.48;;;10.98;;
62633;SDS011;48704;50.534;6.442;2024-01-11T06:19:30;26.15;;;11.52;;
62633;SDS011;48704;50.534;6.442;2024-01-11T06:21:55;19.92;;;10.27;;
62633;SDS011;48704;50.534;6.442;2024-01-11T06:24:20;24.67;;;10.15;;
62633;SDS011;48704;50.534;6.442;2024-01-11T06:26:46;32.33;;;10.77;;
62633;SDS011;48704;50.534;6.442;2024-01-11T06:29:11;24.98;;;10.30;;
62633;SDS011;48704;50.534;6.442;2024-01-11T06:31:36;24.25;;;10.88;;
62633;SDS011;48704;50.534;6.442;2024-01-11T06:34:02;26.17;;;11.38;;
62633;SDS011;48704;50.534;6.442;2024-01-11T06:36:27;28.35;;;11.98;;
62633;SDS011;48704;50.534;6.442;2024-01-11T06:38:53;28.05;;;12.13;;
62633;SDS011;48704;50.534;6.442;2024-01-11T06:41:18;27.92;;;10.60;;
62633;SDS011;48704;50.534;6.442;2024-01-11T06:43:43;21.75;;;10.63;;
62633;SDS011;48704;50.534;6.442;2024-01-11T06:46:09;26.63;;;10.15;;
62633;SDS011;48704;50.534;6.442;2024-01-11T06:48:35;27.02;;;11.30;;
62633;SDS011;48704;50.534;6.442;2024-01-11T06:51:01;27.45;;;12.70;;
62633;SDS011;48704;50.534;6.442;2024-01-11T06:53:26;27.85;;;9.82;;
62633;SDS011;48704;50.534;6.442;2024-01-11T06:55:51;25.67;;;11.77;;
62633;SDS011;48704;50.534;6.442;2024-01-11T06:58:17;25.67;;;11.88;;
62633;SDS011;48704;50.534;6.442;2024-01-11T07:00:45;25.23;;;10.35;;
62633;SDS011;48704;50.534;6.442;2024-01-11T07:03:10;22.17;;;10.57;;
62633;SDS011;48704;50.534;6.442;2024-01-11T07:05:36;28.77;;;12.35;;
62633;SDS011;48704;50.534;6.442;2024-01-11T07:08:01;27.42;;;11.98;;
62633;SDS011;48704;50.534;6.442;2024-01-11T07:10:27;32.55;;;11.68;;
62633;SDS011;48704;50.534;6.442;2024-01-11T07:12:52;28.85;;;12.02;;
62633;SDS011;48704;50.534;6.442;2024-01-11T07:15:17;29.13;;;11.13;;
62633;SDS011;48704;50.534;6.442;2024-01-11T07:17:43;29.75;;;13.48;;
62633;SDS011;48704;50.534;6.442;2024-01-11T07:20:08;29.55;;;12.07;;
62633;SDS011;48704;50.534;6.442;2024-01-11T07:22:34;26.58;;;11.07;;
62633;SDS011;48704;50.534;6.442;2024-01-11T07:24:59;28.27;;;12.05;;
62633;SDS011;48704;50.534;6.442;2024-01-11T07:27:24;25.30;;;10.90;;
62633;SDS011;48704;50.534;6.442;2024-01-11T07:29:50;23.73;;;10.40;;
62633;SDS011;48704;50.534;6.442;2024-01-11T07:32:16;22.80;;;11.15;;
62633;SDS011;48704;50.534;6.442;2024-01-11T07:34:41;31.85;;;13.13;;
62633;SDS011;48704;50.534;6.442;2024-01-11T07:37:06;26.42;;;13.02;;
62633;SDS011;48704;50.534;6.442;2024-01-11T07:39:31;29.15;;;13.05;;
62633;SDS011;48704;50.534;6.442;2024-01-11T07:41:57;26.38;;;12.30;;
62633;SDS011;48704;50.534;6.442;2024-01-11T07:44:22;26.35;;;12.10;;
62633;SDS011;48704;50.534;6.442;2024-01-11T07:46:47;25.48;;;10.40;;
62633;SDS011;48704;50.534;6.442;2024-01-11T07:49:13;29.58;;;11.70;;
62633;SDS011;48704;50.534;6.442;2024-01-11T07:51:38;25.77;;;11.15;;
62633;SDS011;48704;50.534;6.442;2024-01-11T07:54:04;22.98;;;11.02;;
62633;SDS011;48704;50.534;6.442;2024-01-11T07:56:30;28.33;;;10.35;;
62633;SDS011;48704;50.534;6.442;2024-01-11T07:58:55;22.92;;;11.07;;
62633;SDS011;48704;50.534;6.442;2024-01-11T08:01:20;20.88;;;10.57;;
62633;SDS011;48704;50.534;6.442;2024-01-11T08:03:46;31.20;;;12.20;;
62633;SDS011;48704;50.534;6.442;2024-01-11T08:06:12;24.98;;;10.77;;
62633;SDS011;48704;50.534;6.442;2024-01-11T08:08:38;26.92;;;11.05;;
62633;SDS011;48704;50.534;6.442;2024-01-11T08:11:04;23.10;;;10.60;;
62633;SDS011;48704;50.534;6.442;2024-01-11T08:13:30;24.58;;;10.77;;
62633;SDS011;48704;50.534;6.442;2024-01-11T08:15:56;22.42;;;11.00;;
62633;SDS011;48704;50.534;6.442;2024-01-11T08:18:22;26.05;;;11.35;;
62633;SDS011;48704;50.534;6.442;2024-01-11T08:20:47;34.45;;;11.82;;
62633;SDS011;48704;50.534;6.442;2024-01-11T08:23:13;27.77;;;10.15;;
62633;SDS011;48704;50.534;6.442;2024-01-11T08:25:38;28.27;;;11.45;;
62633;SDS011;48704;50.534;6.442;2024-01-11T08:28:04;28.73;;;11.50;;
62633;SDS011;48704;50.534;6.442;2024-01-11T08:30:29;32.38;;;11.32;;
62633;SDS011;48704;50.534;6.442;2024-01-11T08:32:54;19.95;;;9.73;;
62633;SDS011;48704;50.534;6.442;2024-01-11T08:35:20;27.58;;;12.68;;
62633;SDS011;48704;50.534;6.442;2024-01-11T08:37:46;30.55;;;12.07;;
62633;SDS011;48704;50.534;6.442;2024-01-11T08:40:12;29.85;;;13.68;;
62633;SDS011;48704;50.534;6.442;2024-01-11T08:42:38;32.92;;;11.93;;
62633;SDS011;48704;50.534;6.442;2024-01-11T08:45:05;31.30;;;10.95;;
62633;SDS011;48704;50.534;6.442;2024-01-11T08:47:32;33.40;;;12.90;;
62633;SDS011;48704;50.534;6.442;2024-01-11T08:49:58;31.73;;;12.48;;
62633;SDS011;48704;50.534;6.442;2024-01-11T08:52:23;31.27;;;12.75;;
62633;SDS011;48704;50.534;6.442;2024-01-11T08:54:49;28.48;;;12.57;;
62633;SDS011;48704;50.534;6.442;2024-01-11T08:57:14;28.52;;;12.85;;
62633;SDS011;48704;50.534;6.442;2024-01-11T08:59:40;26.45;;;13.13;;
62633;SDS011;48704;50.534;6.442;2024-01-11T09:02:06;31.50;;;13.55;;
62633;SDS011;48704;50.534;6.442;2024-01-11T09:04:31;27.17;;;12.75;;
62633;SDS011;48704;50.534;6.442;2024-01-11T09:06:56;25.98;;;11.23;;
62633;SDS011;48704;50.534;6.442;2024-01-11T09:09:22;24.08;;;11.40;;
62633;SDS011;48704;50.534;6.442;2024-01-11T09:11:47;30.15;;;12.25;;
62633;SDS011;48704;50.534;6.442;2024-01-11T09:14:12;28.33;;;11.00;;
62633;SDS011;48704;50.534;6.442;2024-01-11T09:16:38;29.20;;;12.35;;
62633;SDS011;48704;50.534;6.442;2024-01-11T09:19:04;26.15;;;11.60;;
62633;SDS011;48704;50.534;6.442;2024-01-11T09:21:30;26.75;;;12.45;;
62633;SDS011;48704;50.534;6.442;2024-01-11T09:23:55;27.95;;;11.95;;
62633;SDS011;48704;50.534;6.442;2024-01-11T09:26:20;27.40;;;11.25;;
62633;SDS011;48704;50.534;6.442;2024-01-11T09:28:47;24.45;;;12.32;;
62633;SDS011;48704;50.534;6.442;2024-01-11T09:31:13;24.25;;;11.38;;
62633;SDS011;48704;50.534;6.442;2024-01-11T09:33:38;23.40;;;11.48;;
62633;SDS011;48704;50.534;6.442;2024-01-11T09:36:03;24.10;;;12.20;;
62633;SDS011;48704;50.534;6.442;2024-01-11T09:38:29;26.15;;;11.35;;
62633;SDS011;48704;50.534;6.442;2024-01-11T09:41:07;25.42;;;12.90;;
62633;SDS011;48704;50.534;6.442;2024-01-11T09:46:11;33.00;;;11.18;;
62633;SDS011;48704;50.534;6.442;2024-01-11T09:49:11;21.65;;;10.85;;
62633;SDS011;48704;50.534;6.442;2024-01-11T09:52:01;22.30;;;10.60;;
62633;SDS011;48704;50.534;6.442;2024-01-11T09:54:41;20.73;;;9.90;;
62633;SDS011;48704;50.534;6.442;2024-01-11T09:57:24;23.52;;;9.90;;
62633;SDS011;48704;50.534;6.442;2024-01-11T09:59:54;31.33;;;12.75;;
62633;SDS011;48704;50.534;6.442;2024-01-11T10:02:23;26.15;;;11.73;;
62633;SDS011;48704;50.534;6.442;2024-01-11T10:04:51;27.48;;;12.15;;
62633;SDS011;48704;50.534;6.442;2024-01-11T10:07:17;21.75;;;10.00;;
62633;SDS011;48704;50.534;6.442;2024-01-11T10:09:45;24.20;;;9.05;;
62633;SDS011;48704;50.534;6.442;2024-01-11T10:12:11;20.50;;;10.52;;
62633;SDS011;48704;50.534;6.442;2024-01-11T10:14:36;19.85;;;8.95;;
62633;SDS011;48704;50.534;6.442;2024-01-11T10:17:01;23.83;;;10.68;;
62633;SDS011;48704;50.534;6.442;2024-01-11T10:19:27;21.75;;;9.82;;
62633;SDS011;48704;50.534;6.442;2024-01-11T10:21:53;24.73;;;9.40;;
62633;SDS011;48704;50.534;6.442;2024-01-11T10:24:18;21.38;;;9.05;;
62633;SDS011;48704;50.534;6.442;2024-01-11T10:26:45;22.42;;;8.85;;
62633;SDS011;48704;50.534;6.442;2024-01-11T10:29:11;20.90;;;9.07;;
62633;SDS011;48704;50.534;6.442;2024-01-11T10:31:38;15.73;;;8.63;;
62633;SDS011;48704;50.534;6.442;2024-01-11T10:34:04;21.60;;;8.82;;
62633;SDS011;48704;50.534;6.442;2024-01-11T10:36:31;20.10;;;8.68;;
62633;SDS011;48704;50.534;6.442;2024-01-11T10:38:57;19.33;;;8.63;;
62633;SDS011;48704;50.534;6.442;2024-01-11T10:41:29;17.35;;;9.05;;
62633;SDS011;48704;50.534;6.442;2024-01-11T10:44:04;23.08;;;10.32;;
62633;SDS011;48704;50.534;6.442;2024-01-11T10:46:42;18.90;;;8.80;;
62633;SDS011;48704;50.534;6.442;2024-01-11T10:49:10;20.80;;;8.43;;
62633;SDS011;48704;50.534;6.442;2024-01-11T10:51:41;20.23;;;8.27;;
62633;SDS011;48704;50.534;6.442;2024-01-11T10:54:13;13.75;;;7.15;;
62633;SDS011;48704;50.534;6.442;2024-01-11T10:56:39;16.77;;;7.75;;
62633;SDS011;48704;50.534;6.442;2024-01-11T10:59:09;15.15;;;8.05;;
62633;SDS011;48704;50.534;6.442;2024-01-11T11:01:36;17.30;;;8.32;;
62633;SDS011;48704;50.534;6.442;2024-01-11T11:04:04;17.00;;;9.02;;
62633;SDS011;48704;50.534;6.442;2024-01-11T11:06:32;17.70;;;8.55;;
62633;SDS011;48704;50.534;6.442;2024-01-11T11:09:00;14.95;;;6.60;;
62633;SDS011;48704;50.534;6.442;2024-01-11T11:11:26;12.70;;;7.22;;
62633;SDS011;48704;50.534;6.442;2024-01-11T11:13:52;15.77;;;7.13;;
62633;SDS011;48704;50.534;6.442;2024-01-11T11:16:19;16.30;;;7.35;;
62633;SDS011;48704;50.534;6.442;2024-01-11T11:18:44;11.90;;;6.30;;
62633;SDS011;48704;50.534;6.442;2024-01-11T11:21:10;15.00;;;6.55;;
62633;SDS011;48704;50.534;6.442;2024-01-11T11:23:36;13.60;;;6.25;;
62633;SDS011;48704;50.534;6.442;2024-01-11T11:26:05;13.65;;;6.93;;
62633;SDS011;48704;50.534;6.442;2024-01-11T11:28:32;14.65;;;7.55;;
62633;SDS011;48704;50.534;6.442;2024-01-11T11:30:59;13.18;;;5.95;;
62633;SDS011;48704;50.534;6.442;2024-01-11T11:33:27;11.77;;;5.57;;
62633;SDS011;48704;50.534;6.442;2024-01-11T11:35:59;14.25;;;7.18;;
62633;SDS011;48704;50.534;6.442;2024-01-11T11:38:25;14.05;;;8.52;;
62633;SDS011;48704;50.534;6.442;2024-01-11T11:40:53;13.93;;;7.32;;
62633;SDS011;48704;50.534;6.442;2024-01-11T11:43:21;11.35;;;6.15;;
62633;SDS011;48704;50.534;6.442;2024-01-11T11:45:47;13.88;;;6.00;;
62633;SDS011;48704;50.534;6.442;2024-01-11T11:51:28;10.63;;;5.80;;
62633;SDS011;48704;50.534;6.442;2024-01-11T11:53:48;12.90;;;5.80;;
62633;SDS011;48704;50.534;6.442;2024-01-11T11:56:16;10.95;;;5.03;;
62633;SDS011;48704;50.534;6.442;2024-01-11T11:58:47;12.90;;;5.95;;
62633;SDS011;48704;50.534;6.442;2024-01-11T12:01:15;13.90;;;5.82;;
62633;SDS011;48704;50.534;6.442;2024-01-11T12:03:42;14.48;;;5.75;;
62633;SDS011;48704;50.534;6.442;2024-01-11T12:06:13;12.07;;;5.85;;
62633;SDS011;48704;50.534;6.442;2024-01-11T12:08:41;15.55;;;6.43;;
62633;SDS011;48704;50.534;6.442;2024-01-11T12:11:07;16.70;;;6.90;;
62633;SDS011;48704;50.534;6.442;2024-01-11T12:13:33;11.27;;;5.65;;
62633;SDS011;48704;50.534;6.442;2024-01-11T12:15:58;12.10;;;5.55;;
62633;SDS011;48704;50.534;6.442;2024-01-11T12:18:24;10.82;;;5.72;;
62633;SDS011;48704;50.534;6.442;2024-01-11T12:20:49;14.65;;;6.85;;
62633;SDS011;48704;50.534;6.442;2024-01-11T12:23:16;11.95;;;6.38;;
62633;SDS011;48704;50.534;6.442;2024-01-11T12:25:41;13.65;;;7.30;;
62633;SDS011;48704;50.534;6.442;2024-01-11T12:28:06;19.67;;;7.43;;
62633;SDS011;48704;50.534;6.442;2024-01-11T12:30:32;16.30;;;6.90;;
62633;SDS011;48704;50.534;6.442;2024-01-11T12:32:58;13.52;;;7.55;;
62633;SDS011;48704;50.534;6.442;2024-01-11T12:35:26;12.15;;;6.63;;
62633;SDS011;48704;50.534;6.442;2024-01-11T12:37:55;17.98;;;7.80;;
62633;SDS011;48704;50.534;6.442;2024-01-11T12:40:23;14.30;;;6.50;;
62633;SDS011;48704;50.534;6.442;2024-01-11T12:42:49;14.80;;;6.68;;
62633;SDS011;48704;50.534;6.442;2024-01-11T12:45:15;13.30;;;6.25;;
62633;SDS011;48704;50.534;6.442;2024-01-11T12:47:41;11.15;;;6.13;;
62633;SDS011;48704;50.534;6.442;2024-01-11T12:50:06;11.82;;;5.53;;
62633;SDS011;48704;50.534;6.442;2024-01-11T12:52:32;11.52;;;5.10;;
62633;SDS011;48704;50.534;6.442;2024-01-11T12:54:58;9.45;;;5.55;;
62633;SDS011;48704;50.534;6.442;2024-01-11T12:57:23;11.70;;;5.53;;
62633;SDS011;48704;50.534;6.442;2024-01-11T12:59:48;12.20;;;5.85;;
62633;SDS011;48704;50.534;6.442;2024-01-11T13:02:17;11.50;;;5.55;;
62633;SDS011;48704;50.534;6.442;2024-01-11T13:04:42;11.63;;;5.70;;
62633;SDS011;48704;50.534;6.442;2024-01-11T13:07:10;9.02;;;4.80;;
62633;SDS011;48704;50.534;6.442;2024-01-11T13:09:36;10.20;;;4.97;;
62633;SDS011;48704;50.534;6.442;2024-01-11T13:12:01;10.60;;;4.78;;
62633;SDS011;48704;50.534;6.442;2024-01-11T13:14:28;7.72;;;5.03;;
62633;SDS011;48704;50.534;6.442;2024-01-11T13:16:53;15.15;;;4.85;;
62633;SDS011;48704;50.534;6.442;2024-01-11T13:19:19;9.73;;;5.00;;
62633;SDS011;48704;50.534;6.442;2024-01-11T13:21:44;9.93;;;4.47;;
62633;SDS011;48704;50.534;6.442;2024-01-11T13:24:09;9.35;;;4.68;;
62633;SDS011;48704;50.534;6.442;2024-01-11T13:26:35;11.27;;;4.85;;
62633;SDS011;48704;50.534;6.442;2024-01-11T13:29:04;13.13;;;4.93;;
62633;SDS011;48704;50.534;6.442;2024-01-11T13:31:30;11.10;;;4.63;;
62633;SDS011;48704;50.534;6.442;2024-01-11T13:33:56;12.40;;;4.68;;
62633;SDS011;48704;50.534;6.442;2024-01-11T13:36:21;9.65;;;4.35;;
62633;SDS011;48704;50.534;6.442;2024-01-11T13:38:47;10.65;;;4.85;;
62633;SDS011;48704;50.534;6.442;2024-01-11T13:41:14;9.63;;;4.15;;
62633;SDS011;48704;50.534;6.442;2024-01-11T13:43:39;8.63;;;4.57;;
62633;SDS011;48704;50.534;6.442;2024-01-11T13:46:04;8.43;;;4.57;;
62633;SDS011;48704;50.534;6.442;2024-01-11T13:48:33;9.30;;;4.30;;
62633;SDS011;48704;50.534;6.442;2024-01-11T13:50:59;7.63;;;4.03;;
62633;SDS011;48704;50.534;6.442;2024-01-11T13:53:25;9.27;;;3.92;;
62633;SDS011;48704;50.534;6.442;2024-01-11T13:55:50;8.55;;;3.92;;
62633;SDS011;48704;50.534;6.442;2024-01-11T13:58:16;9.23;;;4.57;;
62633;SDS011;48704;50.534;6.442;2024-01-11T14:00:43;8.25;;;3.72;;
62633;SDS011;48704;50.534;6.442;2024-01-11T14:03:09;7.60;;;3.83;;
62633;SDS011;48704;50.534;6.442;2024-01-11T14:05:36;7.65;;;3.88;;
62633;SDS011;48704;50.534;6.442;2024-01-11T14:08:02;7.68;;;3.83;;
62633;SDS011;48704;50.534;6.442;2024-01-11T14:10:30;7.60;;;3.47;;
62633;SDS011;48704;50.534;6.442;2024-01-11T14:12:57;11.85;;;4.97;;
62633;SDS011;48704;50.534;6.442;2024-01-11T14:15:23;11.18;;;3.63;;
62633;SDS011;48704;50.534;6.442;2024-01-11T14:17:49;9.93;;;4.18;;
62633;SDS011;48704;50.534;6.442;2024-01-11T14:20:14;10.25;;;4.10;;
62633;SDS011;48704;50.534;6.442;2024-01-11T14:22:40;10.10;;;3.72;;
62633;SDS011;48704;50.534;6.442;2024-01-11T14:25:07;9.10;;;4.13;;
62633;SDS011;48704;50.534;6.442;2024-01-11T14:27:36;9.70;;;4.18;;
62633;SDS011;48704;50.534;6.442;2024-01-11T14:30:01;6.72;;;3.53;;
62633;SDS011;48704;50.534;6.442;2024-01-11T14:32:30;8.07;;;3.47;;
62633;SDS011;48704;50.534;6.442;2024-01-11T14:34:55;8.98;;;3.53;;
62633;SDS011;48704;50.534;6.442;2024-01-11T14:37:20;9.32;;;3.88;;
62633;SDS011;48704;50.534;6.442;2024-01-11T14:39:46;8.93;;;3.75;;